sensor_id;sensor_type;location;lat;lon;timestamp;temperature;humidity
74101;DHT22;62462;52.530;21.682;2023-05-01T00:00:20;8.40;51.50
74101;DHT22;62462;52.530;21.682;2023-05-01T00:02:46;8.30;51.80
74101;DHT22;62462;52.530;21.682;2023-05-01T00:05:12;8.30;51.80
74101;DHT22;62462;52.530;21.682;2023-05-01T00:07:37;8.30;51.90
74101;DHT22;62462;52.530;21.682;2023-05-01T00:10:03;8.30;51.90
74101;DHT22;62462;52.530;21.682;2023-05-01T00:12:29;8.20;52.40
74101;DHT22;62462;52.530;21.682;2023-05-01T00:14:55;8.10;52.60
74101;DHT22;62462;52.530;21.682;2023-05-01T00:17:21;8.00;52.90
74101;DHT22;62462;52.530;21.682;2023-05-01T00:19:54;8.00;52.70
74101;DHT22;62462;52.530;21.682;2023-05-01T00:22:20;8.00;52.50
74101;DHT22;62462;52.530;21.682;2023-05-01T00:24:46;7.90;52.80
74101;DHT22;62462;52.530;21.682;2023-05-01T00:27:15;7.80;53.10
74101;DHT22;62462;52.530;21.682;2023-05-01T00:29:40;7.70;53.00
74101;DHT22;62462;52.530;21.682;2023-05-01T00:32:06;7.70;52.90
74101;DHT22;62462;52.530;21.682;2023-05-01T00:34:32;7.70;53.30
74101;DHT22;62462;52.530;21.682;2023-05-01T00:36:59;7.70;53.50
74101;DHT22;62462;52.530;21.682;2023-05-01T00:39:25;7.60;53.80
74101;DHT22;62462;52.530;21.682;2023-05-01T00:41:51;7.60;54.10
74101;DHT22;62462;52.530;21.682;2023-05-01T00:44:16;7.50;54.10
74101;DHT22;62462;52.530;21.682;2023-05-01T00:46:42;7.60;54.10
74101;DHT22;62462;52.530;21.682;2023-05-01T00:49:08;7.60;53.70
74101;DHT22;62462;52.530;21.682;2023-05-01T00:51:35;7.60;53.40
74101;DHT22;62462;52.530;21.682;2023-05-01T00:54:02;7.70;53.20
74101;DHT22;62462;52.530;21.682;2023-05-01T00:56:29;7.70;52.70
74101;DHT22;62462;52.530;21.682;2023-05-01T00:58:56;7.60;52.60
74101;DHT22;62462;52.530;21.682;2023-05-01T01:01:22;7.60;52.80
74101;DHT22;62462;52.530;21.682;2023-05-01T01:03:48;7.60;53.00
74101;DHT22;62462;52.530;21.682;2023-05-01T01:11:39;7.50;52.90
74101;DHT22;62462;52.530;21.682;2023-05-01T01:17:17;7.40;53.10
74101;DHT22;62462;52.530;21.682;2023-05-01T01:20:30;7.30;53.70
74101;DHT22;62462;52.530;21.682;2023-05-01T01:23:35;7.20;53.80
74101;DHT22;62462;52.530;21.682;2023-05-01T01:31:20;7.10;54.50
74101;DHT22;62462;52.530;21.682;2023-05-01T01:36:55;7.10;53.70
74101;DHT22;62462;52.530;21.682;2023-05-01T01:39:51;7.10;53.80
74101;DHT22;62462;52.530;21.682;2023-05-01T01:42:21;7.10;53.40
74101;DHT22;62462;52.530;21.682;2023-05-01T01:44:54;7.00;53.20
74101;DHT22;62462;52.530;21.682;2023-05-01T01:47:24;7.00;53.70
74101;DHT22;62462;52.530;21.682;2023-05-01T01:49:54;6.90;54.40
74101;DHT22;62462;52.530;21.682;2023-05-01T01:52:21;6.80;54.80
74101;DHT22;62462;52.530;21.682;2023-05-01T01:54:53;6.90;54.70
74101;DHT22;62462;52.530;21.682;2023-05-01T01:57:20;6.90;54.60
74101;DHT22;62462;52.530;21.682;2023-05-01T01:59:47;6.90;54.10
74101;DHT22;62462;52.530;21.682;2023-05-01T02:02:18;6.80;54.20
74101;DHT22;62462;52.530;21.682;2023-05-01T02:04:45;6.80;54.30
74101;DHT22;62462;52.530;21.682;2023-05-01T02:07:13;6.80;54.50
74101;DHT22;62462;52.530;21.682;2023-05-01T02:09:40;6.80;54.20
74101;DHT22;62462;52.530;21.682;2023-05-01T02:12:07;6.80;53.70
74101;DHT22;62462;52.530;21.682;2023-05-01T02:14:34;6.80;54.00
74101;DHT22;62462;52.530;21.682;2023-05-01T02:17:01;6.80;54.20
74101;DHT22;62462;52.530;21.682;2023-05-01T02:19:29;6.80;54.20
74101;DHT22;62462;52.530;21.682;2023-05-01T02:21:57;6.70;54.60
74101;DHT22;62462;52.530;21.682;2023-05-01T02:24:23;6.60;55.00
74101;DHT22;62462;52.530;21.682;2023-05-01T02:26:54;6.60;54.90
74101;DHT22;62462;52.530;21.682;2023-05-01T02:29:21;6.60;54.90
74101;DHT22;62462;52.530;21.682;2023-05-01T02:31:47;6.60;54.80
74101;DHT22;62462;52.530;21.682;2023-05-01T02:34:12;6.60;54.40
74101;DHT22;62462;52.530;21.682;2023-05-01T02:36:39;6.50;53.80
74101;DHT22;62462;52.530;21.682;2023-05-01T02:39:05;6.50;54.10
74101;DHT22;62462;52.530;21.682;2023-05-01T02:41:32;6.40;54.50
74101;DHT22;62462;52.530;21.682;2023-05-01T02:44:03;6.40;54.80
74101;DHT22;62462;52.530;21.682;2023-05-01T02:46:33;6.30;55.30
74101;DHT22;62462;52.530;21.682;2023-05-01T02:49:01;6.20;55.40
74101;DHT22;62462;52.530;21.682;2023-05-01T02:51:28;6.20;55.00
74101;DHT22;62462;52.530;21.682;2023-05-01T02:53:54;6.30;55.00
74101;DHT22;62462;52.530;21.682;2023-05-01T02:56:20;6.30;54.80
74101;DHT22;62462;52.530;21.682;2023-05-01T02:58:49;6.30;54.90
74101;DHT22;62462;52.530;21.682;2023-05-01T03:01:15;6.30;54.90
74101;DHT22;62462;52.530;21.682;2023-05-01T03:03:41;6.30;55.20
74101;DHT22;62462;52.530;21.682;2023-05-01T03:06:06;6.20;55.30
74101;DHT22;62462;52.530;21.682;2023-05-01T03:08:32;6.20;54.80
74101;DHT22;62462;52.530;21.682;2023-05-01T03:10:58;6.20;55.00
74101;DHT22;62462;52.530;21.682;2023-05-01T03:13:24;6.20;55.50
74101;DHT22;62462;52.530;21.682;2023-05-01T03:15:49;6.20;55.40
74101;DHT22;62462;52.530;21.682;2023-05-01T03:18:15;6.20;55.20
74101;DHT22;62462;52.530;21.682;2023-05-01T03:20:50;6.20;54.20
74101;DHT22;62462;52.530;21.682;2023-05-01T03:23:16;6.10;54.00
74101;DHT22;62462;52.530;21.682;2023-05-01T03:25:42;6.10;54.50
74101;DHT22;62462;52.530;21.682;2023-05-01T03:28:08;6.10;54.70
74101;DHT22;62462;52.530;21.682;2023-05-01T03:30:34;6.00;55.00
74101;DHT22;62462;52.530;21.682;2023-05-01T03:33:00;5.90;55.40
74101;DHT22;62462;52.530;21.682;2023-05-01T03:35:26;5.90;55.20
74101;DHT22;62462;52.530;21.682;2023-05-01T03:37:52;5.90;55.60
74101;DHT22;62462;52.530;21.682;2023-05-01T03:40:18;5.80;56.20
74101;DHT22;62462;52.530;21.682;2023-05-01T03:42:44;5.60;56.80
74101;DHT22;62462;52.530;21.682;2023-05-01T03:45:10;5.60;56.60
74101;DHT22;62462;52.530;21.682;2023-05-01T03:47:35;5.70;56.80
74101;DHT22;62462;52.530;21.682;2023-05-01T03:50:01;5.70;57.20
74101;DHT22;62462;52.530;21.682;2023-05-01T03:52:27;5.50;57.80
74101;DHT22;62462;52.530;21.682;2023-05-01T03:54:53;5.50;58.30
74101;DHT22;62462;52.530;21.682;2023-05-01T03:57:19;5.60;57.90
74101;DHT22;62462;52.530;21.682;2023-05-01T03:59:48;5.70;57.60
74101;DHT22;62462;52.530;21.682;2023-05-01T04:02:14;5.70;57.90
74101;DHT22;62462;52.530;21.682;2023-05-01T04:04:40;5.70;58.50
74101;DHT22;62462;52.530;21.682;2023-05-01T04:07:06;5.80;58.10
74101;DHT22;62462;52.530;21.682;2023-05-01T04:09:31;5.90;58.00
74101;DHT22;62462;52.530;21.682;2023-05-01T04:11:57;6.00;58.10
74101;DHT22;62462;52.530;21.682;2023-05-01T04:14:23;6.20;58.00
74101;DHT22;62462;52.530;21.682;2023-05-01T04:16:48;6.20;58.10
74101;DHT22;62462;52.530;21.682;2023-05-01T04:19:15;6.30;58.20
74101;DHT22;62462;52.530;21.682;2023-05-01T04:21:41;6.50;58.10
74101;DHT22;62462;52.530;21.682;2023-05-01T04:24:07;6.50;58.10
74101;DHT22;62462;52.530;21.682;2023-05-01T04:26:33;6.60;58.40
74101;DHT22;62462;52.530;21.682;2023-05-01T04:28:58;6.70;58.50
74101;DHT22;62462;52.530;21.682;2023-05-01T04:31:25;6.80;58.50
74101;DHT22;62462;52.530;21.682;2023-05-01T04:33:50;6.90;58.60
74101;DHT22;62462;52.530;21.682;2023-05-01T04:36:17;7.10;58.70
74101;DHT22;62462;52.530;21.682;2023-05-01T04:38:42;7.20;58.70
74101;DHT22;62462;52.530;21.682;2023-05-01T04:41:08;7.30;58.40
74101;DHT22;62462;52.530;21.682;2023-05-01T04:43:34;7.40;58.40
74101;DHT22;62462;52.530;21.682;2023-05-01T04:46:01;7.50;58.40
74101;DHT22;62462;52.530;21.682;2023-05-01T04:48:27;7.60;58.30
74101;DHT22;62462;52.530;21.682;2023-05-01T04:50:53;7.80;58.10
74101;DHT22;62462;52.530;21.682;2023-05-01T04:53:19;7.90;58.10
74101;DHT22;62462;52.530;21.682;2023-05-01T04:55:45;8.00;59.10
74101;DHT22;62462;52.530;21.682;2023-05-01T04:58:11;8.10;57.70
74101;DHT22;62462;52.530;21.682;2023-05-01T05:00:37;8.30;57.70
74101;DHT22;62462;52.530;21.682;2023-05-01T05:03:02;8.40;57.50
74101;DHT22;62462;52.530;21.682;2023-05-01T05:05:29;8.50;57.00
74101;DHT22;62462;52.530;21.682;2023-05-01T05:07:54;8.60;57.00
74101;DHT22;62462;52.530;21.682;2023-05-01T05:10:20;8.60;57.20
74101;DHT22;62462;52.530;21.682;2023-05-01T05:12:46;8.50;57.30
74101;DHT22;62462;52.530;21.682;2023-05-01T05:15:12;8.70;57.90
74101;DHT22;62462;52.530;21.682;2023-05-01T05:17:37;8.80;57.50
74101;DHT22;62462;52.530;21.682;2023-05-01T05:20:03;8.70;57.70
74101;DHT22;62462;52.530;21.682;2023-05-01T05:22:29;8.70;57.40
74101;DHT22;62462;52.530;21.682;2023-05-01T05:24:55;8.80;57.50
74101;DHT22;62462;52.530;21.682;2023-05-01T05:27:24;8.90;57.10
74101;DHT22;62462;52.530;21.682;2023-05-01T05:29:50;9.10;57.10
74101;DHT22;62462;52.530;21.682;2023-05-01T05:32:16;9.20;56.50
74101;DHT22;62462;52.530;21.682;2023-05-01T05:34:41;9.40;56.20
74101;DHT22;62462;52.530;21.682;2023-05-01T05:37:07;9.50;55.80
74101;DHT22;62462;52.530;21.682;2023-05-01T05:39:33;9.60;55.60
74101;DHT22;62462;52.530;21.682;2023-05-01T05:41:59;9.60;54.60
74101;DHT22;62462;52.530;21.682;2023-05-01T05:44:25;9.70;54.70
74101;DHT22;62462;52.530;21.682;2023-05-01T05:46:50;9.80;54.90
74101;DHT22;62462;52.530;21.682;2023-05-01T05:49:16;9.90;53.90
74101;DHT22;62462;52.530;21.682;2023-05-01T05:51:42;9.90;53.30
74101;DHT22;62462;52.530;21.682;2023-05-01T05:54:07;10.00;53.50
74101;DHT22;62462;52.530;21.682;2023-05-01T05:56:33;10.00;53.20
74101;DHT22;62462;52.530;21.682;2023-05-01T05:58:59;10.00;53.40
74101;DHT22;62462;52.530;21.682;2023-05-01T06:01:27;10.10;53.70
74101;DHT22;62462;52.530;21.682;2023-05-01T06:03:53;10.10;53.70
74101;DHT22;62462;52.530;21.682;2023-05-01T06:06:19;10.20;53.10
74101;DHT22;62462;52.530;21.682;2023-05-01T06:08:45;10.30;53.40
74101;DHT22;62462;52.530;21.682;2023-05-01T06:11:11;10.40;53.20
74101;DHT22;62462;52.530;21.682;2023-05-01T06:13:37;10.40;52.20
74101;DHT22;62462;52.530;21.682;2023-05-01T06:16:03;10.40;52.10
74101;DHT22;62462;52.530;21.682;2023-05-01T06:18:29;10.40;52.20
74101;DHT22;62462;52.530;21.682;2023-05-01T06:20:55;10.50;52.80
74101;DHT22;62462;52.530;21.682;2023-05-01T06:23:21;10.60;52.70
74101;DHT22;62462;52.530;21.682;2023-05-01T06:25:46;10.60;51.60
74101;DHT22;62462;52.530;21.682;2023-05-01T06:28:14;10.70;52.20
74101;DHT22;62462;52.530;21.682;2023-05-01T06:30:39;10.80;52.10
74101;DHT22;62462;52.530;21.682;2023-05-01T06:33:05;11.00;51.20
74101;DHT22;62462;52.530;21.682;2023-05-01T06:35:31;11.00;50.80
74101;DHT22;62462;52.530;21.682;2023-05-01T06:37:56;11.10;51.20
74101;DHT22;62462;52.530;21.682;2023-05-01T06:40:22;11.20;51.40
74101;DHT22;62462;52.530;21.682;2023-05-01T06:42:48;11.30;50.70
74101;DHT22;62462;52.530;21.682;2023-05-01T06:45:14;11.40;51.00
74101;DHT22;62462;52.530;21.682;2023-05-01T06:47:40;11.40;49.80
74101;DHT22;62462;52.530;21.682;2023-05-01T06:50:07;11.50;49.70
74101;DHT22;62462;52.530;21.682;2023-05-01T06:52:33;11.50;50.00
74101;DHT22;62462;52.530;21.682;2023-05-01T06:54:59;11.60;49.70
74101;DHT22;62462;52.530;21.682;2023-05-01T06:57:24;11.60;48.50
74101;DHT22;62462;52.530;21.682;2023-05-01T06:59:51;11.60;49.00
74101;DHT22;62462;52.530;21.682;2023-05-01T07:02:18;11.70;49.20
74101;DHT22;62462;52.530;21.682;2023-05-01T07:04:44;11.90;48.40
74101;DHT22;62462;52.530;21.682;2023-05-01T07:07:09;12.00;46.80
74101;DHT22;62462;52.530;21.682;2023-05-01T07:09:35;12.10;47.50
74101;DHT22;62462;52.530;21.682;2023-05-01T07:12:01;12.20;46.30
74101;DHT22;62462;52.530;21.682;2023-05-01T07:14:27;12.30;45.50
74101;DHT22;62462;52.530;21.682;2023-05-01T07:16:53;12.30;46.10
74101;DHT22;62462;52.530;21.682;2023-05-01T07:19:20;12.30;45.40
74101;DHT22;62462;52.530;21.682;2023-05-01T07:21:45;12.40;43.70
74101;DHT22;62462;52.530;21.682;2023-05-01T07:24:11;12.40;43.90
74101;DHT22;62462;52.530;21.682;2023-05-01T07:26:37;12.50;43.70
74101;DHT22;62462;52.530;21.682;2023-05-01T07:29:03;12.70;43.20
74101;DHT22;62462;52.530;21.682;2023-05-01T07:31:29;12.70;43.80
74101;DHT22;62462;52.530;21.682;2023-05-01T07:33:55;12.70;44.10
74101;DHT22;62462;52.530;21.682;2023-05-01T07:36:21;12.80;44.30
74101;DHT22;62462;52.530;21.682;2023-05-01T07:38:48;12.90;43.80
74101;DHT22;62462;52.530;21.682;2023-05-01T07:41:13;13.00;44.00
74101;DHT22;62462;52.530;21.682;2023-05-01T07:43:39;13.20;44.30
74101;DHT22;62462;52.530;21.682;2023-05-01T07:46:05;13.30;41.90
74101;DHT22;62462;52.530;21.682;2023-05-01T07:48:31;13.30;43.30
74101;DHT22;62462;52.530;21.682;2023-05-01T07:51:01;13.40;43.80
74101;DHT22;62462;52.530;21.682;2023-05-01T07:53:26;13.60;44.40
74101;DHT22;62462;52.530;21.682;2023-05-01T07:55:52;13.90;45.00
74101;DHT22;62462;52.530;21.682;2023-05-01T07:58:18;14.20;43.80
74101;DHT22;62462;52.530;21.682;2023-05-01T08:00:44;14.20;41.00
74101;DHT22;62462;52.530;21.682;2023-05-01T08:03:11;14.10;41.00
74101;DHT22;62462;52.530;21.682;2023-05-01T08:05:41;14.10;42.20
74101;DHT22;62462;52.530;21.682;2023-05-01T08:08:07;14.30;42.30
74101;DHT22;62462;52.530;21.682;2023-05-01T08:10:33;14.40;42.50
74101;DHT22;62462;52.530;21.682;2023-05-01T08:12:59;14.60;41.70
74101;DHT22;62462;52.530;21.682;2023-05-01T08:15:25;14.80;41.90
74101;DHT22;62462;52.530;21.682;2023-05-01T08:17:51;14.90;41.70
74101;DHT22;62462;52.530;21.682;2023-05-01T08:20:16;15.00;42.20
74101;DHT22;62462;52.530;21.682;2023-05-01T08:22:42;15.10;39.40
74101;DHT22;62462;52.530;21.682;2023-05-01T08:25:10;15.00;40.90
74101;DHT22;62462;52.530;21.682;2023-05-01T08:27:36;15.00;41.10
74101;DHT22;62462;52.530;21.682;2023-05-01T08:30:02;15.10;42.30
74101;DHT22;62462;52.530;21.682;2023-05-01T08:32:28;15.40;42.20
74101;DHT22;62462;52.530;21.682;2023-05-01T08:34:54;15.60;40.10
74101;DHT22;62462;52.530;21.682;2023-05-01T08:37:20;15.70;40.60
74101;DHT22;62462;52.530;21.682;2023-05-01T08:39:46;15.70;40.00
74101;DHT22;62462;52.530;21.682;2023-05-01T08:42:12;15.60;38.70
74101;DHT22;62462;52.530;21.682;2023-05-01T08:44:39;15.60;40.00
74101;DHT22;62462;52.530;21.682;2023-05-01T08:47:15;15.80;40.10
74101;DHT22;62462;52.530;21.682;2023-05-01T08:49:43;15.90;39.90
74101;DHT22;62462;52.530;21.682;2023-05-01T08:52:13;16.10;40.60
74101;DHT22;62462;52.530;21.682;2023-05-01T08:54:43;16.30;40.40
74101;DHT22;62462;52.530;21.682;2023-05-01T08:57:10;16.30;37.80
74101;DHT22;62462;52.530;21.682;2023-05-01T08:59:37;16.10;38.40
74101;DHT22;62462;52.530;21.682;2023-05-01T09:02:07;16.00;38.80
74101;DHT22;62462;52.530;21.682;2023-05-01T09:04:42;15.90;38.20
74101;DHT22;62462;52.530;21.682;2023-05-01T09:07:08;15.90;38.10
74101;DHT22;62462;52.530;21.682;2023-05-01T09:09:35;15.90;37.80
74101;DHT22;62462;52.530;21.682;2023-05-01T09:14:30;16.10;37.40
74101;DHT22;62462;52.530;21.682;2023-05-01T09:16:57;16.10;37.10
74101;DHT22;62462;52.530;21.682;2023-05-01T09:19:24;16.20;38.40
74101;DHT22;62462;52.530;21.682;2023-05-01T09:21:51;16.40;39.30
74101;DHT22;62462;52.530;21.682;2023-05-01T09:24:17;16.70;39.10
74101;DHT22;62462;52.530;21.682;2023-05-01T09:26:43;16.70;33.90
74101;DHT22;62462;52.530;21.682;2023-05-01T09:29:09;16.60;34.90
74101;DHT22;62462;52.530;21.682;2023-05-01T09:31:36;16.60;36.60
74101;DHT22;62462;52.530;21.682;2023-05-01T09:34:03;16.70;35.00
74101;DHT22;62462;52.530;21.682;2023-05-01T09:36:31;16.70;35.60
74101;DHT22;62462;52.530;21.682;2023-05-01T09:38:58;16.70;35.60
74101;DHT22;62462;52.530;21.682;2023-05-01T09:41:25;16.80;36.40
74101;DHT22;62462;52.530;21.682;2023-05-01T09:43:56;17.10;38.00
74101;DHT22;62462;52.530;21.682;2023-05-01T09:46:23;17.40;38.80
74101;DHT22;62462;52.530;21.682;2023-05-01T09:49:00;17.70;35.50
74101;DHT22;62462;52.530;21.682;2023-05-01T09:51:28;17.70;35.00
74101;DHT22;62462;52.530;21.682;2023-05-01T09:54:03;17.80;34.40
74101;DHT22;62462;52.530;21.682;2023-05-01T09:56:33;17.80;35.00
74101;DHT22;62462;52.530;21.682;2023-05-01T09:59:15;17.80;33.70
74101;DHT22;62462;52.530;21.682;2023-05-01T10:01:42;17.80;35.30
74101;DHT22;62462;52.530;21.682;2023-05-01T10:04:08;17.60;34.60
74101;DHT22;62462;52.530;21.682;2023-05-01T10:06:34;17.70;37.10
74101;DHT22;62462;52.530;21.682;2023-05-01T10:09:01;17.80;37.30
74101;DHT22;62462;52.530;21.682;2023-05-01T10:11:27;18.00;36.20
74101;DHT22;62462;52.530;21.682;2023-05-01T10:16:33;17.80;33.70
74101;DHT22;62462;52.530;21.682;2023-05-01T10:18:59;18.00;36.00
74101;DHT22;62462;52.530;21.682;2023-05-01T10:21:26;18.20;36.30
74101;DHT22;62462;52.530;21.682;2023-05-01T10:23:52;18.50;36.80
74101;DHT22;62462;52.530;21.682;2023-05-01T10:26:19;18.60;32.30
74101;DHT22;62462;52.530;21.682;2023-05-01T10:28:47;18.60;32.40
74101;DHT22;62462;52.530;21.682;2023-05-01T10:31:14;18.50;31.60
74101;DHT22;62462;52.530;21.682;2023-05-01T10:33:42;18.40;32.10
74101;DHT22;62462;52.530;21.682;2023-05-01T10:36:21;18.50;35.00
74101;DHT22;62462;52.530;21.682;2023-05-01T10:38:49;18.60;32.70
74101;DHT22;62462;52.530;21.682;2023-05-01T10:41:15;18.70;32.80
74101;DHT22;62462;52.530;21.682;2023-05-01T10:43:43;18.80;30.80
74101;DHT22;62462;52.530;21.682;2023-05-01T10:53:45;18.80;32.10
74101;DHT22;62462;52.530;21.682;2023-05-01T11:01:29;18.50;31.00
74101;DHT22;62462;52.530;21.682;2023-05-01T11:03:55;18.60;31.60
74101;DHT22;62462;52.530;21.682;2023-05-01T11:06:21;18.80;33.90
74101;DHT22;62462;52.530;21.682;2023-05-01T11:08:48;19.10;32.60
74101;DHT22;62462;52.530;21.682;2023-05-01T11:14:05;19.60;34.50
74101;DHT22;62462;52.530;21.682;2023-05-01T11:19:43;19.90;28.10
74101;DHT22;62462;52.530;21.682;2023-05-01T11:21:57;19.80;29.60
74101;DHT22;62462;52.530;21.682;2023-05-01T11:24:31;19.90;31.00
74101;DHT22;62462;52.530;21.682;2023-05-01T11:27:00;19.90;29.30
74101;DHT22;62462;52.530;21.682;2023-05-01T11:29:30;19.80;28.40
74101;DHT22;62462;52.530;21.682;2023-05-01T11:31:59;19.50;28.40
74101;DHT22;62462;52.530;21.682;2023-05-01T11:34:25;19.60;29.20
74101;DHT22;62462;52.530;21.682;2023-05-01T11:36:52;19.60;28.90
74101;DHT22;62462;52.530;21.682;2023-05-01T11:39:18;19.60;29.20
74101;DHT22;62462;52.530;21.682;2023-05-01T11:41:45;19.80;29.40
74101;DHT22;62462;52.530;21.682;2023-05-01T11:44:11;19.90;28.20
74101;DHT22;62462;52.530;21.682;2023-05-01T11:46:38;20.00;29.20
74101;DHT22;62462;52.530;21.682;2023-05-01T11:49:04;20.30;30.90
74101;DHT22;62462;52.530;21.682;2023-05-01T11:51:30;20.50;29.70
74101;DHT22;62462;52.530;21.682;2023-05-01T11:54:07;20.80;30.70
74101;DHT22;62462;52.530;21.682;2023-05-01T11:56:34;20.90;27.30
74101;DHT22;62462;52.530;21.682;2023-05-01T11:59:15;20.90;27.70
74101;DHT22;62462;52.530;21.682;2023-05-01T12:01:43;20.70;26.60
74101;DHT22;62462;52.530;21.682;2023-05-01T12:04:10;20.60;26.20
74101;DHT22;62462;52.530;21.682;2023-05-01T12:06:41;20.50;27.70
74101;DHT22;62462;52.530;21.682;2023-05-01T12:09:15;20.40;27.80
74101;DHT22;62462;52.530;21.682;2023-05-01T12:11:42;20.50;27.00
74101;DHT22;62462;52.530;21.682;2023-05-01T12:14:09;20.70;27.40
74101;DHT22;62462;52.530;21.682;2023-05-01T12:16:36;20.80;27.70
74101;DHT22;62462;52.530;21.682;2023-05-01T12:19:02;20.90;28.50
74101;DHT22;62462;52.530;21.682;2023-05-01T12:21:29;20.80;26.30
74101;DHT22;62462;52.530;21.682;2023-05-01T12:23:56;20.60;26.40
74101;DHT22;62462;52.530;21.682;2023-05-01T12:26:31;20.60;26.70
74101;DHT22;62462;52.530;21.682;2023-05-01T12:31:27;21.10;27.40
74101;DHT22;62462;52.530;21.682;2023-05-01T12:33:57;21.20;27.50
74101;DHT22;62462;52.530;21.682;2023-05-01T12:36:24;21.30;27.10
74101;DHT22;62462;52.530;21.682;2023-05-01T12:38:59;21.40;26.00
74101;DHT22;62462;52.530;21.682;2023-05-01T12:41:32;21.30;26.60
74101;DHT22;62462;52.530;21.682;2023-05-01T12:44:15;21.30;25.40
74101;DHT22;62462;52.530;21.682;2023-05-01T12:46:41;21.30;26.00
74101;DHT22;62462;52.530;21.682;2023-05-01T12:49:07;21.30;24.80
74101;DHT22;62462;52.530;21.682;2023-05-01T12:51:33;21.40;26.40
74101;DHT22;62462;52.530;21.682;2023-05-01T12:53:59;21.60;25.90
74101;DHT22;62462;52.530;21.682;2023-05-01T12:56:25;21.80;26.10
74101;DHT22;62462;52.530;21.682;2023-05-01T12:58:51;21.90;26.60
74101;DHT22;62462;52.530;21.682;2023-05-01T13:01:27;21.90;25.60
74101;DHT22;62462;52.530;21.682;2023-05-01T13:03:53;21.80;25.40
74101;DHT22;62462;52.530;21.682;2023-05-01T13:06:29;21.90;26.20
74101;DHT22;62462;52.530;21.682;2023-05-01T13:09:09;22.10;26.50
74101;DHT22;62462;52.530;21.682;2023-05-01T13:11:35;22.20;25.60
74101;DHT22;62462;52.530;21.682;2023-05-01T13:14:08;22.10;25.20
74101;DHT22;62462;52.530;21.682;2023-05-01T13:16:43;21.90;25.00
74101;DHT22;62462;52.530;21.682;2023-05-01T13:19:10;21.80;25.60
74101;DHT22;62462;52.530;21.682;2023-05-01T13:21:46;21.90;24.40
74101;DHT22;62462;52.530;21.682;2023-05-01T13:24:14;21.90;25.00
74101;DHT22;62462;52.530;21.682;2023-05-01T13:26:40;21.80;25.30
74101;DHT22;62462;52.530;21.682;2023-05-01T13:29:15;21.90;25.30
74101;DHT22;62462;52.530;21.682;2023-05-01T13:31:44;22.00;25.30
74101;DHT22;62462;52.530;21.682;2023-05-01T13:34:11;22.10;25.50
74101;DHT22;62462;52.530;21.682;2023-05-01T13:36:41;22.30;25.80
74101;DHT22;62462;52.530;21.682;2023-05-01T13:39:09;22.50;25.20
74101;DHT22;62462;52.530;21.682;2023-05-01T13:41:41;22.60;25.70
74101;DHT22;62462;52.530;21.682;2023-05-01T13:44:07;22.60;25.20
74101;DHT22;62462;52.530;21.682;2023-05-01T13:46:33;22.50;26.40
74101;DHT22;62462;52.530;21.682;2023-05-01T13:49:02;22.60;26.30
74101;DHT22;62462;52.530;21.682;2023-05-01T13:51:29;22.60;23.60
74101;DHT22;62462;52.530;21.682;2023-05-01T13:53:56;22.40;23.30
74101;DHT22;62462;52.530;21.682;2023-05-01T13:56:22;22.30;24.40
74101;DHT22;62462;52.530;21.682;2023-05-01T13:58:49;22.50;24.60
74101;DHT22;62462;52.530;21.682;2023-05-01T14:01:16;22.70;24.70
74101;DHT22;62462;52.530;21.682;2023-05-01T14:03:43;22.80;24.20
74101;DHT22;62462;52.530;21.682;2023-05-01T14:06:14;22.80;23.50
74101;DHT22;62462;52.530;21.682;2023-05-01T14:08:40;22.80;23.50
74101;DHT22;62462;52.530;21.682;2023-05-01T14:11:08;22.80;23.80
74101;DHT22;62462;52.530;21.682;2023-05-01T14:13:41;22.70;23.40
74101;DHT22;62462;52.530;21.682;2023-05-01T14:16:08;22.60;23.30
74101;DHT22;62462;52.530;21.682;2023-05-01T14:18:44;22.60;23.90
74101;DHT22;62462;52.530;21.682;2023-05-01T14:21:14;22.60;23.70
74101;DHT22;62462;52.530;21.682;2023-05-01T14:23:41;22.50;23.90
74101;DHT22;62462;52.530;21.682;2023-05-01T14:26:08;22.40;23.90
74101;DHT22;62462;52.530;21.682;2023-05-01T14:28:40;22.50;24.80
74101;DHT22;62462;52.530;21.682;2023-05-01T14:31:07;22.70;24.70
74101;DHT22;62462;52.530;21.682;2023-05-01T14:33:40;22.70;24.60
74101;DHT22;62462;52.530;21.682;2023-05-01T14:36:06;22.80;24.20
74101;DHT22;62462;52.530;21.682;2023-05-01T14:38:32;22.80;24.20
74101;DHT22;62462;52.530;21.682;2023-05-01T14:41:03;22.80;24.00
74101;DHT22;62462;52.530;21.682;2023-05-01T14:43:32;22.70;24.00
74101;DHT22;62462;52.530;21.682;2023-05-01T14:45:58;22.50;24.20
74101;DHT22;62462;52.530;21.682;2023-05-01T14:48:26;22.30;24.60
74101;DHT22;62462;52.530;21.682;2023-05-01T14:50:53;22.20;25.20
74101;DHT22;62462;52.530;21.682;2023-05-01T14:53:20;22.20;24.50
74101;DHT22;62462;52.530;21.682;2023-05-01T14:55:49;22.20;24.10
74101;DHT22;62462;52.530;21.682;2023-05-01T14:58:15;22.20;24.90
74101;DHT22;62462;52.530;21.682;2023-05-01T15:00:41;22.20;24.60
74101;DHT22;62462;52.530;21.682;2023-05-01T15:03:06;22.30;24.90
74101;DHT22;62462;52.530;21.682;2023-05-01T15:05:32;22.30;24.50
74101;DHT22;62462;52.530;21.682;2023-05-01T15:07:58;22.30;24.70
74101;DHT22;62462;52.530;21.682;2023-05-01T15:10:30;22.20;25.30
74101;DHT22;62462;52.530;21.682;2023-05-01T15:12:56;22.10;24.60
74101;DHT22;62462;52.530;21.682;2023-05-01T15:15:22;21.90;24.60
74101;DHT22;62462;52.530;21.682;2023-05-01T15:17:48;21.70;24.80
74101;DHT22;62462;52.530;21.682;2023-05-01T15:20:14;21.70;25.20
74101;DHT22;62462;52.530;21.682;2023-05-01T15:22:40;21.70;25.20
74101;DHT22;62462;52.530;21.682;2023-05-01T15:25:07;21.50;24.80
74101;DHT22;62462;52.530;21.682;2023-05-01T15:27:33;21.40;25.30
74101;DHT22;62462;52.530;21.682;2023-05-01T15:29:59;21.40;25.60
74101;DHT22;62462;52.530;21.682;2023-05-01T15:32:25;21.40;25.70
74101;DHT22;62462;52.530;21.682;2023-05-01T15:34:50;21.30;25.60
74101;DHT22;62462;52.530;21.682;2023-05-01T15:37:21;21.20;25.10
74101;DHT22;62462;52.530;21.682;2023-05-01T15:39:49;21.10;26.10
74101;DHT22;62462;52.530;21.682;2023-05-01T15:42:17;21.20;26.10
74101;DHT22;62462;52.530;21.682;2023-05-01T15:44:43;21.30;25.70
74101;DHT22;62462;52.530;21.682;2023-05-01T15:47:08;21.20;25.60
74101;DHT22;62462;52.530;21.682;2023-05-01T15:49:34;21.20;25.90
74101;DHT22;62462;52.530;21.682;2023-05-01T15:52:00;21.20;25.70
74101;DHT22;62462;52.530;21.682;2023-05-01T15:54:27;21.10;25.40
74101;DHT22;62462;52.530;21.682;2023-05-01T15:56:53;21.10;25.90
74101;DHT22;62462;52.530;21.682;2023-05-01T15:59:18;21.00;26.00
74101;DHT22;62462;52.530;21.682;2023-05-01T16:01:44;21.10;26.30
74101;DHT22;62462;52.530;21.682;2023-05-01T16:04:10;21.10;26.00
74101;DHT22;62462;52.530;21.682;2023-05-01T16:06:36;21.00;25.90